createdAt,value
2023-03-02T00:00:16.698Z,3.60
2023-03-02T00:03:04.128Z,2.10
2023-03-02T00:05:49.637Z,2.40
2023-03-02T00:08:35.581Z,2.30
2023-03-02T00:11:21.639Z,2.70
2023-03-02T00:14:07.529Z,2.40
2023-03-02T00:16:52.987Z,2.30
2023-03-02T00:19:39.103Z,2.30
2023-03-02T00:22:24.683Z,4.10
2023-03-02T00:25:11.811Z,2.20
2023-03-02T00:27:57.093Z,3.30
2023-03-02T00:30:42.708Z,2.10
2023-03-02T00:33:28.316Z,1.90
2023-03-02T00:36:18.351Z,1.90
2023-03-02T00:39:04.834Z,3.50
2023-03-02T00:41:50.498Z,1.80
2023-03-02T00:44:35.752Z,1.80
2023-03-02T00:47:21.272Z,1.90
2023-03-02T00:50:07.066Z,2.10
2023-03-02T00:52:52.534Z,1.90
2023-03-02T00:55:38.475Z,2.00
2023-03-02T00:58:23.726Z,2.10
2023-03-02T01:01:11.555Z,2.10
2023-03-02T01:03:57.016Z,2.10
2023-03-02T01:06:47.260Z,2.60
2023-03-02T01:09:33.042Z,2.00
2023-03-02T01:12:19.424Z,2.00
2023-03-02T01:15:06.336Z,2.10
2023-03-02T01:17:52.126Z,2.10
2023-03-02T01:24:18.862Z,1.90
2023-03-02T01:27:04.515Z,3.40
2023-03-02T01:29:50.771Z,1.70
2023-03-02T01:32:36.231Z,2.50
2023-03-02T01:35:21.874Z,1.80
2023-03-02T01:38:07.369Z,1.90
2023-03-02T01:40:52.848Z,1.90
2023-03-02T01:43:38.944Z,2.10
2023-03-02T01:46:28.275Z,2.00
2023-03-02T01:49:15.373Z,2.00
2023-03-02T01:52:01.198Z,2.00
2023-03-02T01:54:49.923Z,1.90
2023-03-02T01:57:43.554Z,1.90
2023-03-02T02:00:36.672Z,2.00
2023-03-02T02:03:26.349Z,2.90
2023-03-02T02:06:38.097Z,1.80
2023-03-02T02:09:25.326Z,1.80
2023-03-02T02:12:20.047Z,1.80
2023-03-02T02:15:06.127Z,1.90
2023-03-02T02:17:54.349Z,1.80
2023-03-02T02:20:47.815Z,4.10
2023-03-02T02:23:56.737Z,1.90
2023-03-02T02:26:46.557Z,2.20
2023-03-02T02:29:35.034Z,2.20
2023-03-02T02:32:27.508Z,2.50
2023-03-02T02:35:19.934Z,2.30
2023-03-02T02:38:08.267Z,2.20
2023-03-02T02:41:00.029Z,3.50
2023-03-02T02:43:45.644Z,2.20
2023-03-02T02:46:32.965Z,2.10
2023-03-02T02:49:36.620Z,2.50
2023-03-02T02:52:27.815Z,2.00
2023-03-02T02:55:16.684Z,2.10
2023-03-02T02:58:10.038Z,2.10
2023-03-02T03:00:55.493Z,2.10
2023-03-02T03:03:47.377Z,2.50
2023-03-02T03:06:38.321Z,1.90
2023-03-02T03:09:24.468Z,3.20
2023-03-02T03:12:20.343Z,1.90
2023-03-02T03:15:06.727Z,1.90
2023-03-02T03:17:56.962Z,2.00
2023-03-02T03:20:42.554Z,2.00
2023-03-02T03:23:28.080Z,2.00
2023-03-02T03:26:13.700Z,1.90
2023-03-02T03:28:59.422Z,2.00
2023-03-02T03:31:45.082Z,2.00
2023-03-02T03:34:31.490Z,2.00
2023-03-02T03:37:19.572Z,2.00
2023-03-02T03:40:06.738Z,1.90
2023-03-02T03:42:51.999Z,1.70
2023-03-02T03:45:37.580Z,1.70
2023-03-02T03:48:23.151Z,1.50
2023-03-02T03:51:10.742Z,2.00
2023-03-02T03:54:02.074Z,1.80
2023-03-02T03:56:49.205Z,2.30
2023-03-02T03:59:34.568Z,1.90
2023-03-02T04:02:20.936Z,2.50
2023-03-02T04:05:08.258Z,2.10
2023-03-02T04:07:53.944Z,2.20
2023-03-02T04:10:40.079Z,2.10
2023-03-02T04:13:26.234Z,1.90
2023-03-02T04:16:11.890Z,1.80
2023-03-02T04:18:58.463Z,1.70
2023-03-02T04:21:47.015Z,1.80
2023-03-02T04:24:32.823Z,1.90
2023-03-02T04:27:19.185Z,1.90
2023-03-02T04:30:05.847Z,3.10
2023-03-02T04:32:51.359Z,1.90
2023-03-02T04:35:37.220Z,1.90
2023-03-02T04:38:23.448Z,1.80
2023-03-02T04:41:09.029Z,1.90
2023-03-02T04:43:54.466Z,2.10
2023-03-02T04:46:40.348Z,2.00
2023-03-02T04:49:26.705Z,1.90
2023-03-02T04:52:12.480Z,1.90
2023-03-02T04:54:57.868Z,3.20
2023-03-02T04:57:43.431Z,1.90
2023-03-02T05:00:28.958Z,3.40
2023-03-02T05:03:14.604Z,3.00
2023-03-02T05:06:02.197Z,2.00
2023-03-02T05:08:48.155Z,3.30
2023-03-02T05:11:34.551Z,2.70
2023-03-02T05:14:19.971Z,2.50
2023-03-02T05:17:05.283Z,2.40
2023-03-02T05:19:50.744Z,2.40
2023-03-02T05:22:36.280Z,2.30
2023-03-02T05:25:22.585Z,2.40
2023-03-02T05:28:07.853Z,2.40
2023-03-02T05:30:53.831Z,2.40
2023-03-02T05:33:39.328Z,2.50
2023-03-02T05:36:24.723Z,2.50
2023-03-02T05:39:09.993Z,2.40
2023-03-02T05:41:55.617Z,2.50
2023-03-02T05:44:41.158Z,2.60
2023-03-02T05:47:26.528Z,2.60
2023-03-02T05:50:12.114Z,4.20
2023-03-02T05:52:58.425Z,3.50
2023-03-02T05:55:43.897Z,3.50
2023-03-02T05:58:29.784Z,3.70
2023-03-02T06:01:15.687Z,2.40
2023-03-02T06:04:01.359Z,2.40
2023-03-02T06:06:47.031Z,2.80
2023-03-02T06:09:32.459Z,4.50
2023-03-02T06:12:18.197Z,2.40
2023-03-02T06:15:05.179Z,3.80
2023-03-02T06:17:50.905Z,2.50
2023-03-02T06:20:36.229Z,2.50
2023-03-02T06:23:21.757Z,2.60
2023-03-02T06:26:09.478Z,2.60
2023-03-02T06:28:54.878Z,2.60
2023-03-02T06:31:40.181Z,2.50
2023-03-02T06:34:26.148Z,2.60
2023-03-02T06:37:11.740Z,2.70
2023-03-02T06:39:58.315Z,2.60
2023-03-02T06:42:43.823Z,2.70
2023-03-02T06:45:29.624Z,2.70
2023-03-02T06:48:16.036Z,2.70
2023-03-02T06:51:01.230Z,2.80
2023-03-02T06:53:46.665Z,3.00
2023-03-02T06:56:32.831Z,2.70
2023-03-02T06:59:18.444Z,2.80
2023-03-02T07:02:04.131Z,3.50
2023-03-02T07:04:49.313Z,3.00
2023-03-02T07:07:34.895Z,2.30
2023-03-02T07:10:20.286Z,2.60
2023-03-02T07:13:08.042Z,2.60
2023-03-02T07:15:54.991Z,2.40
2023-03-02T07:18:40.774Z,2.60
2023-03-02T07:21:26.180Z,2.70
2023-03-02T07:24:11.606Z,2.80
2023-03-02T07:26:57.108Z,3.00
2023-03-02T07:29:42.811Z,3.10
2023-03-02T07:32:28.596Z,4.80
2023-03-02T07:35:13.770Z,3.20
2023-03-02T07:37:59.431Z,3.20
2023-03-02T07:40:45.221Z,3.30
2023-03-02T07:43:30.905Z,4.60
2023-03-02T07:46:16.544Z,3.70
2023-03-02T07:49:01.783Z,3.90
2023-03-02T07:51:47.393Z,4.20
2023-03-02T07:54:33.039Z,3.50
2023-03-02T07:57:18.412Z,4.40
2023-03-02T08:00:05.197Z,3.50
2023-03-02T08:02:50.649Z,4.20
2023-03-02T08:05:36.107Z,3.90
2023-03-02T08:08:21.386Z,3.10
2023-03-02T08:11:13.419Z,3.40
2023-03-02T08:14:03.376Z,3.40
2023-03-02T08:16:48.742Z,3.50
2023-03-02T08:19:34.482Z,3.40
2023-03-02T08:22:20.061Z,3.60
2023-03-02T08:25:07.324Z,5.00
2023-03-02T08:27:52.529Z,3.90
2023-03-02T08:30:38.575Z,3.70
2023-03-02T08:33:25.756Z,3.90
2023-03-02T08:36:18.266Z,3.70
2023-03-02T08:39:03.593Z,3.60
2023-03-02T08:41:54.794Z,3.60
2023-03-02T08:44:40.489Z,3.80
2023-03-02T08:47:26.039Z,5.00
2023-03-02T08:50:11.623Z,4.20
2023-03-02T08:52:56.871Z,4.30
2023-03-02T08:55:42.388Z,6.50
2023-03-02T08:58:28.217Z,6.70
2023-03-02T09:01:18.506Z,4.10
2023-03-02T09:04:05.841Z,4.20
2023-03-02T09:06:51.427Z,4.50
2023-03-02T09:09:37.121Z,6.00
2023-03-02T09:12:22.684Z,4.90
2023-03-02T09:15:08.543Z,4.90
2023-03-02T09:17:53.857Z,4.60
2023-03-02T09:20:39.496Z,4.30
2023-03-02T09:23:26.556Z,6.00
2023-03-02T09:26:12.012Z,4.30
2023-03-02T09:28:57.901Z,4.50
2023-03-02T09:31:43.444Z,5.90
2023-03-02T09:34:29.459Z,4.20
2023-03-02T09:37:15.294Z,4.40
2023-03-02T09:40:00.656Z,4.30
2023-03-02T09:42:51.971Z,4.40
2023-03-02T09:46:28.577Z,4.80
2023-03-02T09:49:31.926Z,5.00
2023-03-02T09:52:40.443Z,5.20
2023-03-02T09:55:32.196Z,5.40
2023-03-02T09:58:20.562Z,4.90
2023-03-02T10:01:16.832Z,5.30
2023-03-02T10:04:15.027Z,5.10
2023-03-02T10:07:35.999Z,5.00
2023-03-02T10:10:56.312Z,5.30
2023-03-02T10:13:47.700Z,5.40
2023-03-02T10:16:46.310Z,5.60
2023-03-02T10:19:47.631Z,5.50
2023-03-02T10:22:43.395Z,5.00
2023-03-02T10:25:48.716Z,4.60
2023-03-02T10:28:44.350Z,4.70
2023-03-02T10:31:32.916Z,4.90
2023-03-02T10:34:28.302Z,5.10
2023-03-02T10:37:16.720Z,7.10
2023-03-02T10:40:02.160Z,5.20
2023-03-02T10:42:48.964Z,5.40
2023-03-02T10:45:35.041Z,5.60
2023-03-02T10:48:20.807Z,5.80
2023-03-02T10:51:06.129Z,7.40
2023-03-02T10:54:13.961Z,6.20
2023-03-02T10:57:05.861Z,6.10
2023-03-02T10:59:52.120Z,6.40
2023-03-02T11:02:38.026Z,6.70
2023-03-02T11:05:33.990Z,7.00
2023-03-02T11:08:22.721Z,7.50
2023-03-02T11:11:22.402Z,8.20
2023-03-02T11:14:16.467Z,10.30
2023-03-02T11:17:03.581Z,9.10
2023-03-02T11:19:50.930Z,9.10
2023-03-02T11:22:49.936Z,9.50
2023-03-02T11:25:44.953Z,10.30
2023-03-02T11:28:56.894Z,10.20
2023-03-02T11:31:50.530Z,10.30
2023-03-02T11:34:51.029Z,10.30
2023-03-02T11:37:49.972Z,10.90
2023-03-02T11:40:58.487Z,11.80
2023-03-02T11:43:43.872Z,11.20
2023-03-02T11:46:32.255Z,10.60
2023-03-02T11:49:24.468Z,11.00
2023-03-02T11:52:20.252Z,11.00
2023-03-02T11:55:17.799Z,13.50
2023-03-02T11:58:04.819Z,11.30
2023-03-02T12:00:51.270Z,14.20
2023-03-02T12:03:40.829Z,10.50
2023-03-02T12:06:29.858Z,11.30
2023-03-02T12:09:24.581Z,11.70
2023-03-02T12:12:25.416Z,10.60
2023-03-02T12:15:38.800Z,11.00
2023-03-02T12:18:24.863Z,9.30
2023-03-02T12:21:22.171Z,10.50
2023-03-02T12:24:24.916Z,11.40
2023-03-02T12:27:13.354Z,10.80
2023-03-02T12:30:23.413Z,11.90
2023-03-02T12:33:11.824Z,12.30
2023-03-02T12:36:18.596Z,13.50
2023-03-02T12:39:07.095Z,11.80
2023-03-02T12:42:17.642Z,12.00
2023-03-02T12:45:43.397Z,12.10
2023-03-02T12:48:36.184Z,12.10
2023-03-02T12:51:25.418Z,12.80
2023-03-02T12:54:17.062Z,15.00
2023-03-02T12:57:17.508Z,13.30
2023-03-02T13:00:05.386Z,14.30
2023-03-02T13:02:53.638Z,13.50
2023-03-02T13:05:38.864Z,13.80
2023-03-02T13:08:28.787Z,13.80
2023-03-02T13:11:22.589Z,14.60
2023-03-02T13:14:25.956Z,12.20
2023-03-02T13:17:31.627Z,12.30
2023-03-02T13:20:27.429Z,13.00
2023-03-02T13:23:17.170Z,13.60
2023-03-02T13:26:05.519Z,15.10
2023-03-02T13:29:20.830Z,14.30
2023-03-02T13:32:26.754Z,14.40
2023-03-02T13:35:28.069Z,14.40
2023-03-02T13:38:18.679Z,14.70
2023-03-02T13:41:04.136Z,15.80
2023-03-02T13:43:49.774Z,14.50
2023-03-02T13:46:36.357Z,15.80
2023-03-02T13:49:34.315Z,14.90
2023-03-02T13:52:30.071Z,14.30
2023-03-02T13:55:18.040Z,12.60
2023-03-02T13:58:03.573Z,12.00
2023-03-02T14:00:49.693Z,13.30
2023-03-02T14:03:35.065Z,13.00
2023-03-02T14:06:20.830Z,12.20
2023-03-02T14:09:06.311Z,12.70
2023-03-02T14:11:54.579Z,14.40
2023-03-02T14:14:41.036Z,13.10
2023-03-02T14:17:27.143Z,12.50
2023-03-02T14:20:15.421Z,13.30
2023-03-02T14:23:03.495Z,13.00
2023-03-02T14:25:50.563Z,13.40
2023-03-02T14:28:36.112Z,14.70
2023-03-02T14:31:21.526Z,14.00
2023-03-02T14:34:09.361Z,13.00
2023-03-02T14:36:58.679Z,13.40
2023-03-02T14:39:55.616Z,14.30
2023-03-02T14:42:40.873Z,13.00
2023-03-02T14:45:26.344Z,13.40
2023-03-02T14:48:11.928Z,13.70
2023-03-02T14:50:59.733Z,14.50
2023-03-02T14:53:47.789Z,14.70
2023-03-02T14:56:33.368Z,15.00
2023-03-02T14:59:19.089Z,14.20
2023-03-02T15:02:19.064Z,14.50
2023-03-02T15:05:10.020Z,14.60
2023-03-02T15:07:58.702Z,14.50
2023-03-02T15:10:44.228Z,14.70
2023-03-02T15:13:29.473Z,16.90
2023-03-02T15:16:15.539Z,15.20
2023-03-02T15:19:00.823Z,13.90
2023-03-02T15:21:46.590Z,14.90
2023-03-02T15:24:33.383Z,16.00
2023-03-02T15:27:19.332Z,15.10
2023-03-02T15:30:05.609Z,14.80
2023-03-02T15:32:53.199Z,13.00
2023-03-02T15:35:39.635Z,13.20
2023-03-02T15:38:25.450Z,14.90
2023-03-02T15:41:13.156Z,14.70
2023-03-02T15:43:58.522Z,14.10
2023-03-02T15:46:44.253Z,14.00
2023-03-02T15:49:32.200Z,13.90
2023-03-02T15:52:19.728Z,14.00
2023-03-02T15:55:05.609Z,12.50
2023-03-02T15:57:51.861Z,12.00
2023-03-02T16:00:37.886Z,11.60
2023-03-02T16:03:24.356Z,11.60
2023-03-02T16:06:10.288Z,11.50
2023-03-02T16:08:55.898Z,10.70
2023-03-02T16:11:41.407Z,10.60
2023-03-02T16:14:26.908Z,10.40
2023-03-02T16:17:12.465Z,12.00
2023-03-02T16:19:58.188Z,10.80
2023-03-02T16:22:43.630Z,9.60
2023-03-02T16:25:29.161Z,9.30
2023-03-02T16:28:15.908Z,9.60
2023-03-02T16:31:05.911Z,10.30
2023-03-02T16:33:51.643Z,9.30
2023-03-02T16:36:39.379Z,9.10
2023-03-02T16:39:24.826Z,8.90
2023-03-02T16:42:10.396Z,9.00
2023-03-02T16:44:56.031Z,8.80
2023-03-02T16:47:41.581Z,9.70
2023-03-02T16:50:27.055Z,8.70
2023-03-02T16:53:15.509Z,8.40
2023-03-02T16:56:01.010Z,9.00
2023-03-02T16:58:46.546Z,8.00
2023-03-02T17:01:32.110Z,8.00
2023-03-02T17:04:18.528Z,7.60
2023-03-02T17:07:05.946Z,7.60
2023-03-02T17:09:51.155Z,7.60
2023-03-02T17:12:36.700Z,7.50
2023-03-02T17:15:22.185Z,7.40
2023-03-02T17:18:07.392Z,7.20
2023-03-02T17:20:53.693Z,6.80
2023-03-02T17:23:39.738Z,6.90
2023-03-02T17:26:25.341Z,6.80
2023-03-02T17:29:10.601Z,6.90
2023-03-02T17:31:56.340Z,6.80
2023-03-02T17:34:43.319Z,6.40
2023-03-02T17:37:30.352Z,6.30
2023-03-02T17:40:17.807Z,6.40
2023-03-02T17:43:03.072Z,6.40
2023-03-02T17:45:48.498Z,6.30
2023-03-02T17:48:33.973Z,6.20
2023-03-02T17:51:19.582Z,6.00
2023-03-02T17:54:05.077Z,7.20
2023-03-02T17:56:50.363Z,6.00
2023-03-02T17:59:35.862Z,6.40
2023-03-02T18:06:31.689Z,5.40
2023-03-02T18:09:16.975Z,5.50
2023-03-02T18:12:03.481Z,5.30
2023-03-02T18:14:48.867Z,5.30
2023-03-02T18:17:34.613Z,6.30
2023-03-02T18:20:20.250Z,5.30
2023-03-02T18:23:05.565Z,5.20
2023-03-02T18:25:51.260Z,5.10
2023-03-02T18:28:36.778Z,5.10
2023-03-02T18:31:22.682Z,5.50
2023-03-02T18:34:08.280Z,5.00
2023-03-02T18:36:53.622Z,5.00
2023-03-02T18:39:39.461Z,5.10
2023-03-02T18:42:25.042Z,4.80
2023-03-02T18:45:21.677Z,4.70
2023-03-02T18:48:07.276Z,6.00
2023-03-02T18:50:52.714Z,4.70
2023-03-02T18:53:38.198Z,4.80
2023-03-02T18:56:24.082Z,6.40
2023-03-02T18:59:09.891Z,4.70
2023-03-02T19:01:55.138Z,6.00
2023-03-02T19:04:40.702Z,4.50
2023-03-02T19:07:25.952Z,4.60
2023-03-02T19:10:12.078Z,4.50
2023-03-02T19:12:57.367Z,4.80
2023-03-02T19:15:43.385Z,4.30
2023-03-02T19:18:30.071Z,4.10
2023-03-02T19:21:16.319Z,5.50
2023-03-02T19:24:01.870Z,4.20
2023-03-02T19:26:47.129Z,4.20
2023-03-02T19:29:32.498Z,4.10
2023-03-02T19:32:20.127Z,5.80
2023-03-02T19:35:05.972Z,4.00
2023-03-02T19:37:52.029Z,3.90
2023-03-02T19:40:38.151Z,3.80
2023-03-02T19:43:24.467Z,3.70
2023-03-02T19:46:10.945Z,3.70
2023-03-02T19:48:56.357Z,3.80
2023-03-02T19:51:41.925Z,3.70
2023-03-02T19:54:27.693Z,3.50
2023-03-02T19:57:13.238Z,3.30
2023-03-02T19:59:59.452Z,4.30
2023-03-02T20:02:47.297Z,3.40
2023-03-02T20:05:32.939Z,3.40
2023-03-02T20:08:21.625Z,3.30
2023-03-02T20:11:06.981Z,3.10
2023-03-02T20:13:53.229Z,3.30
2023-03-02T20:16:39.990Z,3.20
2023-03-02T20:19:25.629Z,3.20
2023-03-02T20:22:11.220Z,3.10
2023-03-02T20:24:56.764Z,3.00
2023-03-02T20:27:42.743Z,4.90
2023-03-02T20:30:42.691Z,2.90
2023-03-02T20:33:33.022Z,3.60
2023-03-02T20:36:30.340Z,2.50
2023-03-02T20:39:18.518Z,2.80
2023-03-02T20:42:04.615Z,2.80
2023-03-02T20:44:49.867Z,2.80
2023-03-02T20:47:35.664Z,2.80
2023-03-02T20:50:26.034Z,2.80
2023-03-02T20:53:12.363Z,4.00
2023-03-02T20:55:58.092Z,2.40
2023-03-02T20:58:44.689Z,3.90
2023-03-02T21:01:30.251Z,2.40
2023-03-02T21:04:15.652Z,2.30
2023-03-02T21:07:00.984Z,2.30
2023-03-02T21:09:46.561Z,2.30
2023-03-02T21:12:33.338Z,2.20
2023-03-02T21:15:20.273Z,2.20
2023-03-02T21:18:05.754Z,2.10
2023-03-02T21:20:51.289Z,2.20
2023-03-02T21:23:36.635Z,2.00
2023-03-02T21:26:22.577Z,1.90
2023-03-02T21:29:09.460Z,1.80
2023-03-02T21:31:55.227Z,1.80
2023-03-02T21:34:40.632Z,1.60
2023-03-02T21:37:27.232Z,1.50
2023-03-02T21:40:17.302Z,1.50
2023-03-02T21:43:03.439Z,1.40
2023-03-02T21:45:49.212Z,1.30
2023-03-02T21:48:34.694Z,1.30
2023-03-02T21:51:20.716Z,2.40
2023-03-02T21:54:06.390Z,1.40
2023-03-02T21:56:51.818Z,1.50
2023-03-02T21:59:37.559Z,1.50
2023-03-02T22:02:22.712Z,1.50
2023-03-02T22:05:08.417Z,1.60
2023-03-02T22:07:53.868Z,1.60
2023-03-02T22:10:47.486Z,1.50
2023-03-02T22:13:34.116Z,1.60
2023-03-02T22:16:22.603Z,1.50
2023-03-02T22:19:29.390Z,1.50
2023-03-02T22:22:23.168Z,3.80
2023-03-02T22:25:16.101Z,1.00
2023-03-02T22:28:01.706Z,1.00
2023-03-02T22:30:48.159Z,1.40
2023-03-02T22:33:34.005Z,1.10
2023-03-02T22:36:22.734Z,1.20
2023-03-02T22:39:15.392Z,1.10
2023-03-02T22:42:12.183Z,1.30
2023-03-02T22:45:12.938Z,0.90
2023-03-02T22:47:59.421Z,1.20
2023-03-02T22:50:46.888Z,2.50
2023-03-02T22:53:43.323Z,1.10
2023-03-02T22:56:36.896Z,0.70
2023-03-02T22:59:25.195Z,0.70
2023-03-02T23:02:18.248Z,0.60
2023-03-02T23:05:28.350Z,0.60
2023-03-02T23:08:24.424Z,0.60
2023-03-02T23:11:16.607Z,0.60
2023-03-02T23:14:07.104Z,1.00
2023-03-02T23:17:16.945Z,0.70
2023-03-02T23:20:03.982Z,0.80
2023-03-02T23:22:50.077Z,0.60
2023-03-02T23:25:35.619Z,0.40
2023-03-02T23:28:21.170Z,0.10
2023-03-02T23:31:07.085Z,0.60
2023-03-02T23:33:52.396Z,0.40
2023-03-02T23:36:38.146Z,0.00
2023-03-02T23:39:23.787Z,0.30
2023-03-02T23:42:09.251Z,0.40
2023-03-02T23:44:55.661Z,0.40
2023-03-02T23:47:41.089Z,0.10
2023-03-02T23:50:26.562Z,0.20
2023-03-02T23:53:12.302Z,0.20
2023-03-02T23:55:57.700Z,0.30
2023-03-02T23:58:43.047Z,0.30
